createdAt,value
2023-02-15T00:01:11.911Z,99.67
2023-02-15T00:03:38.751Z,100.00
2023-02-15T00:06:06.146Z,100.00
2023-02-15T00:08:33.149Z,99.82
2023-02-15T00:11:13.115Z,100.00
2023-02-15T00:13:43.251Z,100.00
2023-02-15T00:16:12.490Z,99.81
2023-02-15T00:18:40.506Z,99.92
2023-02-15T00:21:09.638Z,99.92
2023-02-15T00:23:36.825Z,99.44
2023-02-15T00:26:12.182Z,99.87
2023-02-15T00:28:39.728Z,99.79
2023-02-15T00:31:10.636Z,100.00
2023-02-15T00:33:38.499Z,100.00
2023-02-15T00:36:06.935Z,100.00
2023-02-15T00:38:34.541Z,99.90
2023-02-15T00:41:04.077Z,99.70
2023-02-15T00:43:32.015Z,100.00
2023-02-15T00:45:59.428Z,100.00
2023-02-15T00:48:26.410Z,99.58
2023-02-15T00:50:55.664Z,100.00
2023-02-15T00:53:22.675Z,99.96
2023-02-15T00:55:49.155Z,99.84
2023-02-15T00:58:16.424Z,99.79
2023-02-15T01:00:45.449Z,100.00
2023-02-15T01:03:12.650Z,100.00
2023-02-15T01:05:39.547Z,100.00
2023-02-15T01:08:06.095Z,100.00
2023-02-15T01:10:32.972Z,100.00
2023-02-15T01:12:59.451Z,100.00
2023-02-15T01:15:26.040Z,100.00
2023-02-15T01:17:54.058Z,100.00
2023-02-15T01:20:22.886Z,100.00
2023-02-15T01:22:50.744Z,100.00
2023-02-15T01:25:18.502Z,100.00
2023-02-15T01:27:45.129Z,100.00
2023-02-15T01:30:12.373Z,100.00
2023-02-15T01:32:38.915Z,100.00
2023-02-15T01:35:05.668Z,100.00
2023-02-15T01:37:33.328Z,100.00
2023-02-15T01:40:01.068Z,100.00
2023-02-15T01:42:28.716Z,100.00
2023-02-15T01:44:55.219Z,100.00
2023-02-15T01:47:24.683Z,100.00
2023-02-15T01:50:00.600Z,100.00
2023-02-15T01:52:27.308Z,100.00
2023-02-15T01:54:53.975Z,100.00
2023-02-15T01:57:24.914Z,100.00
2023-02-15T01:59:57.292Z,100.00
2023-02-15T02:02:25.495Z,100.00
2023-02-15T02:04:54.124Z,100.00
2023-02-15T02:07:22.472Z,100.00
2023-02-15T02:09:49.910Z,100.00
2023-02-15T02:12:18.980Z,100.00
2023-02-15T02:14:46.727Z,100.00
2023-02-15T02:17:25.206Z,100.00
2023-02-15T02:20:17.721Z,100.00
2023-02-15T02:23:05.564Z,100.00
2023-02-15T02:25:31.969Z,100.00
2023-02-15T02:28:23.406Z,100.00
2023-02-15T02:31:12.263Z,100.00
2023-02-15T02:33:57.994Z,100.00
2023-02-15T02:36:50.427Z,100.00
2023-02-15T02:39:40.955Z,100.00
2023-02-15T02:42:19.158Z,100.00
2023-02-15T02:44:57.511Z,100.00
2023-02-15T02:47:31.544Z,100.00
2023-02-15T02:50:05.076Z,100.00
2023-02-15T02:52:43.375Z,100.00
2023-02-15T02:55:32.965Z,100.00
2023-02-15T02:58:18.701Z,100.00
2023-02-15T03:00:51.172Z,100.00
2023-02-15T03:03:24.388Z,100.00
2023-02-15T03:05:56.044Z,100.00
2023-02-15T03:08:28.862Z,100.00
2023-02-15T03:11:00.413Z,100.00
2023-02-15T03:13:28.603Z,100.00
2023-02-15T03:16:15.622Z,100.00
2023-02-15T03:18:58.722Z,100.00
2023-02-15T03:21:32.953Z,100.00
2023-02-15T03:24:16.399Z,100.00
2023-02-15T03:26:46.513Z,100.00
2023-02-15T03:29:14.728Z,100.00
2023-02-15T03:31:46.717Z,100.00
2023-02-15T03:34:16.237Z,100.00
2023-02-15T03:36:54.290Z,100.00
2023-02-15T03:39:24.944Z,100.00
2023-02-15T03:42:12.987Z,100.00
2023-02-15T03:44:55.989Z,100.00
2023-02-15T03:47:52.198Z,100.00
2023-02-15T03:50:42.425Z,100.00
2023-02-15T03:53:12.984Z,100.00
2023-02-15T03:55:39.578Z,100.00
2023-02-15T03:58:24.731Z,100.00
2023-02-15T04:01:18.820Z,100.00
2023-02-15T04:04:04.391Z,100.00
2023-02-15T04:06:30.881Z,100.00
2023-02-15T04:09:15.907Z,100.00
2023-02-15T04:11:42.370Z,100.00
2023-02-15T04:14:27.328Z,100.00
2023-02-15T04:16:53.894Z,100.00
2023-02-15T04:19:38.906Z,100.00
2023-02-15T04:22:23.649Z,100.00
2023-02-15T04:25:08.452Z,100.00
2023-02-15T04:27:34.927Z,100.00
2023-02-15T04:30:01.415Z,100.00
2023-02-15T04:32:28.514Z,100.00
2023-02-15T04:34:55.002Z,100.00
2023-02-15T04:37:21.483Z,100.00
2023-02-15T04:39:47.955Z,100.00
2023-02-15T04:42:14.422Z,100.00
2023-02-15T04:44:40.864Z,100.00
2023-02-15T04:47:07.368Z,100.00
2023-02-15T04:49:33.920Z,100.00
2023-02-15T04:52:00.362Z,100.00
2023-02-15T04:54:26.874Z,100.00
2023-02-15T04:56:53.414Z,100.00
2023-02-15T04:59:19.872Z,100.00
2023-02-15T05:01:46.377Z,100.00
2023-02-15T05:04:12.907Z,100.00
2023-02-15T05:06:39.538Z,100.00
2023-02-15T05:09:06.064Z,100.00
2023-02-15T05:11:32.620Z,100.00
2023-02-15T05:13:59.197Z,100.00
2023-02-15T05:16:26.576Z,100.00
2023-02-15T05:18:53.131Z,100.00
2023-02-15T05:21:19.696Z,100.00
2023-02-15T05:23:46.298Z,100.00
2023-02-15T05:26:35.026Z,100.00
2023-02-15T05:29:01.484Z,100.00
2023-02-15T05:31:28.540Z,100.00
2023-02-15T05:33:55.206Z,100.00
2023-02-15T05:36:21.664Z,100.00
2023-02-15T05:38:48.095Z,100.00
2023-02-15T05:41:14.814Z,100.00
2023-02-15T05:43:41.492Z,100.00
2023-02-15T05:46:08.694Z,100.00
2023-02-15T05:48:35.743Z,100.00
2023-02-15T05:51:12.179Z,100.00
2023-02-15T05:53:40.249Z,100.00
2023-02-15T05:56:12.979Z,100.00
2023-02-15T05:58:41.163Z,100.00
2023-02-15T06:01:18.647Z,100.00
2023-02-15T06:03:46.651Z,100.00
2023-02-15T06:06:13.468Z,100.00
2023-02-15T06:08:40.026Z,100.00
2023-02-15T06:11:07.099Z,100.00
2023-02-15T06:13:38.001Z,100.00
2023-02-15T06:16:05.986Z,100.00
2023-02-15T06:18:32.617Z,99.95
2023-02-15T06:20:59.086Z,100.00
2023-02-15T06:23:25.600Z,100.00
2023-02-15T06:25:52.203Z,100.00
2023-02-15T06:28:18.758Z,100.00
2023-02-15T06:30:45.237Z,100.00
2023-02-15T06:33:11.828Z,99.96
2023-02-15T06:35:38.274Z,100.00
2023-02-15T06:38:04.767Z,100.00
2023-02-15T06:40:31.437Z,100.00
2023-02-15T06:42:57.896Z,99.81
2023-02-15T06:45:24.451Z,100.00
2023-02-15T06:47:50.907Z,100.00
2023-02-15T06:50:17.574Z,100.00
2023-02-15T06:52:44.073Z,100.00
2023-02-15T06:55:10.597Z,100.00
2023-02-15T06:57:37.436Z,99.95
2023-02-15T07:00:05.900Z,100.00
2023-02-15T07:02:32.701Z,100.00
2023-02-15T07:04:59.281Z,100.00
2023-02-15T07:07:26.077Z,100.00
2023-02-15T07:09:52.530Z,100.00
2023-02-15T07:12:37.611Z,100.00
2023-02-15T07:15:07.425Z,100.00
2023-02-15T07:17:36.292Z,100.00
2023-02-15T07:20:08.817Z,100.00
2023-02-15T07:22:37.239Z,100.00
2023-02-15T07:25:05.087Z,100.00
2023-02-15T07:27:32.940Z,100.00
2023-02-15T07:30:00.491Z,100.00
2023-02-15T07:32:33.879Z,100.00
2023-02-15T07:35:00.558Z,100.00
2023-02-15T07:37:28.649Z,100.00
2023-02-15T07:39:55.167Z,100.00
2023-02-15T07:42:23.011Z,100.00
2023-02-15T07:44:49.643Z,100.00
2023-02-15T07:47:16.272Z,100.00
2023-02-15T07:49:42.789Z,100.00
2023-02-15T07:52:09.371Z,100.00
2023-02-15T07:54:35.884Z,100.00
2023-02-15T07:57:03.001Z,100.00
2023-02-15T07:59:29.717Z,100.00
2023-02-15T08:01:57.451Z,100.00
2023-02-15T08:04:25.089Z,100.00
2023-02-15T08:06:55.433Z,100.00
2023-02-15T08:09:22.783Z,100.00
2023-02-15T08:11:49.630Z,100.00
2023-02-15T08:14:21.614Z,100.00
2023-02-15T08:16:49.566Z,100.00
2023-02-15T08:19:22.865Z,100.00
2023-02-15T08:21:51.694Z,100.00
2023-02-15T08:24:20.455Z,100.00
2023-02-15T08:26:48.625Z,100.00
2023-02-15T08:29:17.168Z,100.00
2023-02-15T08:31:44.782Z,100.00
2023-02-15T08:34:14.689Z,100.00
2023-02-15T08:36:41.175Z,100.00
2023-02-15T08:39:08.283Z,100.00
2023-02-15T08:41:36.995Z,100.00
2023-02-15T08:44:06.662Z,100.00
2023-02-15T08:46:38.955Z,100.00
2023-02-15T08:49:06.056Z,100.00
2023-02-15T08:51:35.144Z,100.00
2023-02-15T08:54:05.659Z,100.00
2023-02-15T08:56:38.331Z,100.00
2023-02-15T08:59:05.993Z,100.00
2023-02-15T09:01:34.389Z,100.00
2023-02-15T09:04:05.201Z,100.00
2023-02-15T09:06:31.921Z,100.00
2023-02-15T09:08:58.651Z,100.00
2023-02-15T09:11:30.114Z,100.00
2023-02-15T09:14:10.473Z,100.00
2023-02-15T09:16:39.007Z,100.00
2023-02-15T09:19:06.586Z,100.00
2023-02-15T09:21:35.048Z,100.00
2023-02-15T09:24:05.614Z,100.00
2023-02-15T09:26:35.199Z,100.00
2023-02-15T09:29:04.338Z,100.00
2023-02-15T09:31:34.735Z,100.00
2023-02-15T09:34:04.976Z,100.00
2023-02-15T09:36:39.934Z,100.00
2023-02-15T09:39:15.403Z,100.00
2023-02-15T09:41:57.015Z,100.00
2023-02-15T09:44:32.442Z,99.71
2023-02-15T09:47:11.258Z,99.40
2023-02-15T09:50:05.296Z,98.96
2023-02-15T09:52:41.162Z,98.79
2023-02-15T09:55:52.286Z,97.82
2023-02-15T09:59:00.074Z,97.04
2023-02-15T10:01:45.064Z,96.00
2023-02-15T10:04:44.116Z,95.53
2023-02-15T10:07:35.657Z,94.56
2023-02-15T10:10:24.302Z,94.25
2023-02-15T10:13:05.751Z,94.08
2023-02-15T10:15:53.113Z,93.33
2023-02-15T10:18:35.265Z,92.23
2023-02-15T10:21:03.731Z,91.05
2023-02-15T10:23:46.754Z,90.98
2023-02-15T10:26:14.917Z,90.56
2023-02-15T10:28:51.492Z,90.01
2023-02-15T10:31:44.531Z,88.34
2023-02-15T10:34:14.145Z,88.17
2023-02-15T10:36:58.990Z,87.17
2023-02-15T10:39:53.035Z,86.81
2023-02-15T10:42:31.503Z,86.19
2023-02-15T10:45:25.834Z,86.22
2023-02-15T10:48:17.920Z,84.92
2023-02-15T10:50:52.635Z,83.69
2023-02-15T10:53:47.138Z,84.25
2023-02-15T10:56:26.025Z,83.26
2023-02-15T10:59:04.799Z,82.89
2023-02-15T11:01:54.837Z,82.76
2023-02-15T11:04:30.507Z,80.96
2023-02-15T11:07:24.987Z,81.15
2023-02-15T11:10:02.767Z,80.47
2023-02-15T11:12:32.458Z,80.28
2023-02-15T11:15:36.500Z,79.63
2023-02-15T11:18:12.859Z,79.29
2023-02-15T11:20:57.520Z,78.48
2023-02-15T11:23:25.748Z,77.42
2023-02-15T11:26:04.417Z,78.27
2023-02-15T11:28:35.538Z,77.93
2023-02-15T11:31:17.668Z,77.50
2023-02-15T11:33:48.603Z,77.98
2023-02-15T11:36:21.409Z,76.54
2023-02-15T11:38:53.187Z,76.63
2023-02-15T11:41:28.266Z,77.01
2023-02-15T11:44:16.679Z,75.09
2023-02-15T11:46:43.401Z,75.05
2023-02-15T11:49:29.651Z,74.63
2023-02-15T11:51:57.821Z,73.74
2023-02-15T11:54:30.644Z,72.95
2023-02-15T11:57:34.840Z,73.92
2023-02-15T12:00:11.427Z,72.75
2023-02-15T12:02:41.724Z,70.77
2023-02-15T12:05:15.777Z,71.36
2023-02-15T12:07:50.996Z,70.41
2023-02-15T12:10:25.737Z,70.54
2023-02-15T12:13:20.244Z,71.80
2023-02-15T12:15:52.230Z,70.19
2023-02-15T12:18:35.970Z,70.40
2023-02-15T12:21:15.487Z,70.04
2023-02-15T12:23:44.922Z,69.89
2023-02-15T12:26:11.924Z,69.04
2023-02-15T12:28:53.084Z,69.73
2023-02-15T12:31:25.181Z,68.67
2023-02-15T12:33:57.895Z,69.24
2023-02-15T12:36:34.078Z,68.72
2023-02-15T12:39:14.135Z,67.99
2023-02-15T12:41:55.876Z,68.33
2023-02-15T12:44:32.118Z,67.53
2023-02-15T12:47:02.971Z,66.37
2023-02-15T12:49:34.518Z,66.07
2023-02-15T12:52:23.249Z,66.46
2023-02-15T12:54:50.123Z,66.10
2023-02-15T12:57:26.830Z,66.38
2023-02-15T13:00:37.925Z,66.41
2023-02-15T13:03:04.856Z,67.61
2023-02-15T13:05:45.203Z,68.01
2023-02-15T13:08:21.963Z,68.47
2023-02-15T13:10:56.174Z,69.28
2023-02-15T13:13:26.766Z,69.25
2023-02-15T13:15:56.509Z,69.24
2023-02-15T13:18:45.256Z,69.53
2023-02-15T13:21:17.495Z,69.75
2023-02-15T13:23:49.308Z,68.61
2023-02-15T13:26:20.344Z,68.36
2023-02-15T13:28:50.729Z,67.43
2023-02-15T13:31:24.189Z,68.21
2023-02-15T13:33:56.157Z,67.89
2023-02-15T13:36:42.369Z,67.81
2023-02-15T13:39:26.003Z,68.61
2023-02-15T13:42:14.217Z,68.53
2023-02-15T13:45:04.146Z,69.14
2023-02-15T13:47:47.532Z,68.95
2023-02-15T13:50:19.972Z,69.16
2023-02-15T13:53:09.227Z,69.96
2023-02-15T13:55:53.259Z,68.85
2023-02-15T13:58:47.796Z,68.65
2023-02-15T14:01:33.001Z,68.56
2023-02-15T14:04:20.835Z,69.07
2023-02-15T14:07:17.208Z,68.32
2023-02-15T14:10:11.423Z,66.94
2023-02-15T14:13:02.682Z,67.34
2023-02-15T14:15:50.106Z,67.11
2023-02-15T14:18:42.999Z,67.20
2023-02-15T14:21:18.974Z,67.25
2023-02-15T14:23:54.843Z,66.65
2023-02-15T14:26:54.945Z,66.78
2023-02-15T14:29:33.585Z,67.02
2023-02-15T14:32:09.498Z,67.97
2023-02-15T14:34:58.070Z,68.17
2023-02-15T14:37:48.736Z,67.92
2023-02-15T14:41:02.164Z,68.27
2023-02-15T14:44:00.704Z,67.84
2023-02-15T14:46:33.181Z,68.19
2023-02-15T14:49:11.353Z,68.13
2023-02-15T14:51:44.004Z,68.51
2023-02-15T14:54:33.695Z,69.39
2023-02-15T14:57:02.999Z,68.99
2023-02-15T14:59:53.542Z,69.27
2023-02-15T15:02:25.272Z,69.41
2023-02-15T15:05:03.913Z,70.13
2023-02-15T15:07:47.396Z,69.70
2023-02-15T15:10:16.900Z,70.26
2023-02-15T15:12:47.382Z,70.82
2023-02-15T15:15:45.572Z,69.94
2023-02-15T15:18:45.304Z,70.42
2023-02-15T15:21:11.851Z,69.92
2023-02-15T15:23:43.798Z,70.01
2023-02-15T15:26:26.832Z,70.25
2023-02-15T15:28:53.216Z,70.47
2023-02-15T15:31:36.481Z,69.93
2023-02-15T15:34:27.997Z,70.51
2023-02-15T15:37:28.685Z,70.61
2023-02-15T15:40:23.154Z,70.99
2023-02-15T15:43:21.869Z,69.96
2023-02-15T15:45:51.218Z,70.28
2023-02-15T15:48:35.633Z,71.06
2023-02-15T15:51:07.636Z,71.14
2023-02-15T15:53:42.218Z,71.35
2023-02-15T15:56:16.408Z,71.23
2023-02-15T15:58:49.188Z,71.78
2023-02-15T16:01:15.875Z,72.10
2023-02-15T16:03:53.410Z,71.22
2023-02-15T16:06:34.901Z,71.53
2023-02-15T16:09:19.938Z,72.35
2023-02-15T16:11:52.937Z,72.77
2023-02-15T16:14:39.481Z,72.96
2023-02-15T16:17:14.415Z,72.88
2023-02-15T16:19:42.524Z,72.99
2023-02-15T16:22:16.346Z,73.06
2023-02-15T16:25:05.055Z,73.32
2023-02-15T16:27:36.410Z,73.52
2023-02-15T16:30:29.975Z,74.20
2023-02-15T16:33:04.097Z,74.16
2023-02-15T16:35:30.930Z,75.08
2023-02-15T16:37:57.478Z,75.25
2023-02-15T16:40:24.018Z,75.90
2023-02-15T16:42:52.934Z,75.80
2023-02-15T16:45:22.730Z,76.06
2023-02-15T16:47:52.855Z,76.06
2023-02-15T16:50:22.242Z,76.67
2023-02-15T16:52:49.245Z,77.88
2023-02-15T16:55:24.710Z,78.42
2023-02-15T16:57:54.845Z,77.86
2023-02-15T17:00:26.248Z,78.12
2023-02-15T17:03:01.084Z,78.36
2023-02-15T17:05:41.667Z,79.01
2023-02-15T17:08:33.035Z,79.44
2023-02-15T17:10:59.523Z,79.85
2023-02-15T17:13:29.804Z,80.00
2023-02-15T17:15:59.501Z,80.34
2023-02-15T17:18:41.034Z,80.53
2023-02-15T17:21:19.714Z,81.33
2023-02-15T17:23:51.995Z,81.66
2023-02-15T17:26:24.886Z,81.50
2023-02-15T17:28:57.641Z,82.20
2023-02-15T17:31:29.522Z,82.11
2023-02-15T17:33:57.632Z,82.71
2023-02-15T17:36:29.532Z,82.29
2023-02-15T17:38:58.772Z,82.08
2023-02-15T17:41:29.911Z,82.86
2023-02-15T17:43:56.767Z,83.08
2023-02-15T17:46:24.789Z,83.92
2023-02-15T17:48:56.192Z,83.70
2023-02-15T17:51:23.530Z,83.54
2023-02-15T17:54:08.636Z,83.84
2023-02-15T17:56:36.970Z,83.63
2023-02-15T17:59:07.607Z,83.87
2023-02-15T18:02:01.518Z,83.73
2023-02-15T18:04:46.319Z,83.87
2023-02-15T18:07:31.619Z,83.80
2023-02-15T18:10:16.467Z,83.80
2023-02-15T18:12:42.978Z,83.95
2023-02-15T18:15:12.276Z,84.04
2023-02-15T18:17:43.988Z,84.16
2023-02-15T18:20:21.190Z,84.15
2023-02-15T18:22:47.876Z,84.19
2023-02-15T18:25:16.904Z,84.16
2023-02-15T18:27:43.642Z,84.18
2023-02-15T18:30:15.884Z,84.79
2023-02-15T18:32:43.452Z,84.78
2023-02-15T18:35:16.310Z,85.24
2023-02-15T18:37:43.477Z,85.71
2023-02-15T18:40:16.446Z,85.36
2023-02-15T18:42:47.181Z,86.58
2023-02-15T18:45:15.648Z,86.41
2023-02-15T18:47:42.131Z,87.11
2023-02-15T18:50:09.089Z,87.09
2023-02-15T18:52:37.895Z,87.31
2023-02-15T18:55:16.210Z,87.84
2023-02-15T18:57:44.880Z,88.08
2023-02-15T19:00:20.107Z,88.29
2023-02-15T19:02:47.012Z,88.74
2023-02-15T19:05:14.117Z,88.81
2023-02-15T19:07:43.083Z,88.07
2023-02-15T19:10:16.373Z,88.57
2023-02-15T19:12:43.210Z,88.55
2023-02-15T19:15:22.336Z,88.59
2023-02-15T19:17:49.133Z,88.84
2023-02-15T19:20:21.021Z,88.80
2023-02-15T19:22:49.553Z,89.61
2023-02-15T19:25:22.249Z,89.93
2023-02-15T19:27:49.206Z,90.17
2023-02-15T19:30:18.976Z,90.09
2023-02-15T19:32:46.775Z,90.50
2023-02-15T19:35:15.288Z,90.74
2023-02-15T19:37:45.859Z,90.39
2023-02-15T19:40:28.382Z,90.49
2023-02-15T19:42:55.207Z,90.37
2023-02-15T19:45:25.183Z,90.28
2023-02-15T19:47:53.942Z,90.55
2023-02-15T19:50:26.336Z,90.70
2023-02-15T19:52:53.012Z,90.54
2023-02-15T19:55:34.188Z,91.07
2023-02-15T19:58:02.258Z,90.83
2023-02-15T20:00:31.452Z,90.87
2023-02-15T20:02:59.211Z,91.08
2023-02-15T20:05:31.023Z,91.30
2023-02-15T20:07:58.508Z,91.52
2023-02-15T20:10:28.901Z,91.20
2023-02-15T20:12:55.568Z,91.36
2023-02-15T20:15:25.294Z,91.35
2023-02-15T20:17:52.517Z,91.65
2023-02-15T20:20:20.527Z,91.16
2023-02-15T20:22:50.184Z,91.13
2023-02-15T20:25:21.667Z,91.66
2023-02-15T20:27:48.466Z,91.60
2023-02-15T20:30:16.881Z,91.85
2023-02-15T20:32:43.491Z,92.08
2023-02-15T20:35:17.862Z,92.49
2023-02-15T20:37:50.965Z,92.45
2023-02-15T20:40:21.892Z,92.93
2023-02-15T20:42:48.710Z,92.89
2023-02-15T20:45:19.745Z,92.63
2023-02-15T20:47:50.330Z,92.55
2023-02-15T20:50:19.425Z,92.50
2023-02-15T20:52:47.412Z,92.37
2023-02-15T20:55:32.408Z,92.51
2023-02-15T20:57:59.357Z,92.27
2023-02-15T21:00:29.034Z,92.33
2023-02-15T21:02:59.283Z,92.07
2023-02-15T21:05:30.157Z,92.39
2023-02-15T21:07:57.529Z,92.11
2023-02-15T21:10:27.265Z,92.51
2023-02-15T21:12:54.441Z,92.27
2023-02-15T21:15:39.768Z,91.90
2023-02-15T21:18:12.465Z,92.19
2023-02-15T21:20:45.413Z,91.70
2023-02-15T21:23:14.795Z,91.73
2023-02-15T21:25:44.467Z,92.02
2023-02-15T21:28:17.738Z,91.98
2023-02-15T21:30:44.684Z,92.15
2023-02-15T21:33:11.181Z,91.75
2023-02-15T21:35:37.783Z,91.99
2023-02-15T21:38:04.606Z,91.98
2023-02-15T21:40:32.287Z,91.99
2023-02-15T21:43:17.797Z,91.94
2023-02-15T21:46:03.271Z,91.90
2023-02-15T21:48:29.731Z,92.16
2023-02-15T21:51:14.887Z,91.90
2023-02-15T21:53:45.945Z,92.23
2023-02-15T21:56:19.012Z,92.05
2023-02-15T21:58:46.290Z,91.95
2023-02-15T22:01:28.711Z,92.05
2023-02-15T22:03:57.755Z,91.80
2023-02-15T22:06:24.598Z,91.97
2023-02-15T22:08:51.134Z,92.20
2023-02-15T22:11:20.296Z,91.97
2023-02-15T22:13:48.488Z,92.19
2023-02-15T22:16:18.310Z,92.28
2023-02-15T22:18:45.640Z,92.12
2023-02-15T22:21:12.290Z,92.03
2023-02-15T22:23:39.188Z,92.17
2023-02-15T22:26:08.399Z,92.23
2023-02-15T22:28:38.679Z,92.13
2023-02-15T22:31:11.965Z,91.69
2023-02-15T22:33:38.976Z,92.00
2023-02-15T22:36:05.803Z,92.29
2023-02-15T22:38:32.421Z,91.89
2023-02-15T22:41:04.563Z,91.77
2023-02-15T22:43:38.643Z,92.16
2023-02-15T22:46:11.313Z,92.08
2023-02-15T22:48:38.108Z,91.87
2023-02-15T22:51:05.169Z,92.30
2023-02-15T22:53:31.842Z,91.77
2023-02-15T22:56:04.799Z,92.10
2023-02-15T22:58:31.323Z,91.94
2023-02-15T23:00:59.947Z,92.34
2023-02-15T23:03:28.834Z,92.12
2023-02-15T23:05:55.478Z,92.20
2023-02-15T23:08:22.088Z,92.07
2023-02-15T23:10:54.016Z,92.18
2023-02-15T23:13:27.292Z,92.42
2023-02-15T23:15:59.520Z,92.25
2023-02-15T23:18:25.908Z,93.01
2023-02-15T23:20:54.124Z,92.45
2023-02-15T23:23:35.856Z,92.59
2023-02-15T23:26:04.488Z,92.55
2023-02-15T23:28:37.334Z,92.57
2023-02-15T23:31:16.340Z,92.61
2023-02-15T23:33:43.079Z,93.02
2023-02-15T23:36:28.343Z,92.56
2023-02-15T23:39:20.815Z,92.53
2023-02-15T23:41:47.370Z,92.85
2023-02-15T23:44:14.426Z,92.74
2023-02-15T23:46:44.818Z,93.12
2023-02-15T23:49:17.577Z,92.87
2023-02-15T23:51:50.181Z,93.17
2023-02-15T23:54:18.324Z,92.90
2023-02-15T23:56:47.182Z,93.18
2023-02-15T23:59:32.426Z,93.03
